Time;durP1;ratioP1;P1;durP2;ratioP2;P2;SDS_P1;SDS_P2;PMS_P1;PMS_P2;Temp;Humidity;BMP_temperature;BMP_pressure;BME280_temperature;BME280_humidity;BME280_pressure;Samples;Min_cycle;Max_cycle;Signal;HPM_P1;HPM_P2
2022/04/25 00:05:54;;;;;;;10.95;7.13;;;3.80;99.90;;;;;;21224683;27;20039;-58
2022/04/25 00:15:56;;;;;;;12.13;8.50;;;3.60;99.90;;;;;;21225593;27;20039;-59
2022/04/25 00:25:59;;;;;;;14.32;9.95;;;3.30;99.90;;;;;;21223166;27;20076;-59
2022/04/25 00:36:03;;;;;;;14.57;10.35;;;3.20;99.90;;;;;;21215689;27;20092;-57
2022/04/25 00:46:06;;;;;;;10.60;8.30;;;3.30;99.90;;;;;;21156932;27;20100;-52
2022/04/25 00:56:11;;;;;;;14.90;10.65;;;3.40;99.90;;;;;;21154137;27;20085;-51
2022/04/25 01:06:13;;;;;;;22.08;14.38;;;3.40;99.90;;;;;;21135063;28;20385;-59
2022/04/25 01:16:15;;;;;;;21.02;14.27;;;3.60;99.90;;;;;;21134213;28;20068;-56
2022/04/25 01:36:39;;;;;;;19.67;13.57;;;3.60;99.90;;;;;;21200311;27;20035;-59
2022/04/25 01:46:41;;;;;;;14.48;10.50;;;3.20;99.90;;;;;;21147828;28;20179;-52
2022/04/25 01:56:44;;;;;;;10.68;7.25;;;3.20;99.90;;;;;;21130995;28;20116;-59
2022/04/25 02:06:47;;;;;;;10.35;7.15;;;2.90;99.90;;;;;;21130448;28;20035;-50
2022/04/25 02:16:49;;;;;;;12.60;7.78;;;2.70;99.90;;;;;;21115645;28;20036;-52
2022/04/25 02:26:52;;;;;;;9.77;6.90;;;2.80;99.90;;;;;;21092008;28;20093;-51
2022/04/25 02:36:55;;;;;;;12.52;7.80;;;2.70;99.90;;;;;;21101109;28;20032;-52
2022/04/25 02:46:58;;;;;;;9.00;6.47;;;2.80;99.90;;;;;;21195673;28;20047;-58
2022/04/25 02:57:01;;;;;;;10.45;6.97;;;2.50;99.90;;;;;;21154930;27;20060;-49
2022/04/25 03:07:04;;;;;;;11.32;7.00;;;2.30;99.90;;;;;;21229524;27;20043;-51
2022/04/25 03:17:06;;;;;;;8.15;5.53;;;2.20;99.90;;;;;;21228450;27;20088;-51
2022/04/25 03:27:09;;;;;;;10.25;6.47;;;2.30;99.90;;;;;;21226781;27;20099;-52
2022/04/25 03:37:13;;;;;;;7.43;5.30;;;2.30;99.90;;;;;;21227103;27;20399;-50
2022/04/25 03:47:16;;;;;;;9.15;5.07;;;2.50;99.90;;;;;;21165165;27;20047;-51
2022/04/25 03:57:19;;;;;;;5.45;4.13;;;2.60;99.90;;;;;;21222297;27;20043;-48
2022/04/25 04:07:21;;;;;;;5.68;3.20;;;2.50;99.90;;;;;;21224188;27;20084;-52
2022/04/25 04:17:25;;;;;;;5.88;3.58;;;2.60;99.90;;;;;;21223984;27;20095;-52
2022/04/25 04:27:31;;;;;;;5.20;3.60;;;2.50;99.90;;;;;;21221289;27;20088;-49
2022/04/25 04:37:33;;;;;;;6.97;3.30;;;2.20;99.90;;;;;;21137615;28;20059;-52
2022/04/25 04:47:38;;;;;;;10.40;6.35;;;2.00;99.90;;;;;;21166826;27;20191;-49
2022/04/25 04:57:42;;;;;;;10.18;6.70;;;2.00;99.90;;;;;;21182334;27;20039;-52
2022/04/25 05:07:44;;;;;;;7.30;4.32;;;2.10;99.90;;;;;;21167945;27;20065;-52
2022/04/25 05:17:48;;;;;;;9.82;6.35;;;2.20;99.90;;;;;;21159845;27;20175;-48
2022/04/25 05:27:55;;;;;;;7.88;4.93;;;2.40;99.90;;;;;;21213240;27;20623;-58
2022/04/25 05:37:59;;;;;;;6.22;4.85;;;2.60;99.90;;;;;;21208447;27;20087;-52
2022/04/25 05:51:58;;;;;;;6.55;5.07;;;2.70;99.90;;;;;;21206222;27;20051;-59
2022/04/25 05:58:26;;;;;;;7.80;5.00;;;3.00;99.90;;;;;;21198747;27;20035;-52
2022/04/25 06:08:29;;;;;;;7.15;4.53;;;3.30;99.90;;;;;;21179916;27;20031;-50
2022/04/25 06:18:31;;;;;;;7.57;5.60;;;3.80;99.90;;;;;;21175593;27;20081;-53
2022/04/25 06:28:34;;;;;;;8.73;6.18;;;4.10;99.90;;;;;;21141072;27;20487;-53
2022/04/25 06:38:37;;;;;;;7.72;5.50;;;4.80;99.90;;;;;;21213508;27;20057;-53
2022/04/25 06:48:39;;;;;;;5.88;4.20;;;5.60;99.90;;;;;;21066250;28;20439;-52
2022/04/25 06:58:42;;;;;;;4.40;2.67;;;6.40;99.90;;;;;;21043688;28;20040;-59
2022/04/25 07:08:45;;;;;;;2.50;1.80;;;7.30;99.90;;;;;;21043536;28;20091;-60
2022/04/25 07:18:47;;;;;;;2.00;1.80;;;9.70;99.90;;;;;;21126828;28;20100;-62
2022/04/25 07:28:51;;;;;;;2.40;2.10;;;10.40;99.90;;;;;;21106304;28;20047;-54
2022/04/25 07:38:54;;;;;;;2.33;2.08;;;9.90;99.90;;;;;;21070496;28;20036;-54
2022/04/25 07:48:57;;;;;;;2.30;2.03;;;11.40;99.90;;;;;;21142934;28;20377;-54
2022/04/25 07:59:02;;;;;;;2.53;2.22;;;11.10;99.90;;;;;;21157688;28;20065;-54
2022/04/25 08:09:05;;;;;;;3.33;2.92;;;10.40;99.90;;;;;;21201552;27;20111;-53
2022/04/25 08:19:08;;;;;;;3.15;2.83;;;9.90;99.90;;;;;;21142819;28;20043;-53
2022/04/25 08:29:11;;;;;;;3.00;2.70;;;9.50;99.90;;;;;;21138278;28;20172;-55
2022/04/25 08:39:22;;;;;;;4.20;3.03;;;9.40;99.90;;;;;;21152408;28;20035;-53
2022/04/25 08:49:27;;;;;;;4.57;3.42;;;9.20;99.90;;;;;;21145293;28;20085;-52
2022/04/25 08:59:32;;;;;;;4.88;3.75;;;9.20;99.90;;;;;;21135802;28;20401;-51
2022/04/25 09:09:35;;;;;;;4.35;3.72;;;9.20;99.90;;;;;;21118708;28;20089;-53
2022/04/25 09:19:39;;;;;;;5.75;4.53;;;9.10;99.90;;;;;;21134190;28;20035;-61
2022/04/25 09:29:42;;;;;;;5.05;4.05;;;9.10;99.90;;;;;;21206964;27;20360;-53
2022/04/25 09:39:44;;;;;;;5.90;4.82;;;9.00;99.90;;;;;;21200619;27;20120;-53
2022/04/25 09:50:02;;;;;;;5.80;4.78;;;9.20;99.90;;;;;;21216888;27;20501;-59
2022/04/25 10:00:07;;;;;;;4.97;3.75;;;9.60;99.90;;;;;;21134791;28;20048;-54
2022/04/25 10:10:17;;;;;;;5.30;3.83;;;10.20;99.90;;;;;;21169455;27;20047;-61
2022/04/25 10:20:19;;;;;;;4.20;2.97;;;11.60;99.90;;;;;;21157563;27;20039;-55
2022/04/25 10:30:28;;;;;;;4.70;2.90;;;12.60;99.90;;;;;;21214055;27;20035;-60
2022/04/25 10:51:18;;;;;;;3.22;2.70;;;14.60;99.90;;;;;;21201218;28;20076;-63
2022/04/25 11:01:44;;;;;;;4.35;2.92;;;14.40;99.90;;;;;;21162296;28;20112;-60
2022/04/25 11:11:51;;;;;;;2.85;2.30;;;13.30;99.90;;;;;;21149826;27;20043;-52
2022/04/25 11:21:55;;;;;;;3.22;2.50;;;12.40;99.90;;;;;;21219279;27;20039;-50
2022/04/25 11:32:30;;;;;;;3.63;2.45;;;12.00;99.90;;;;;;21227619;27;20084;-52
2022/04/25 11:42:35;;;;;;;2.97;2.33;;;11.70;99.90;;;;;;20899210;28;20041;-53
2022/04/25 11:52:52;;;;;;;3.35;2.72;;;12.60;99.90;;;;;;20878461;28;20048;-54
2022/04/25 12:02:55;;;;;;;4.43;2.78;;;12.40;99.90;;;;;;20884494;28;20230;-53
2022/04/25 12:23:31;;;;;;;3.25;2.50;;;12.30;99.90;;;;;;21138235;28;20028;-53
2022/04/25 12:33:37;;;;;;;3.60;2.47;;;14.00;99.90;;;;;;21137912;28;20036;-52
2022/04/25 12:43:43;;;;;;;5.88;2.97;;;13.50;99.90;;;;;;21181109;27;20072;-54
2022/04/25 12:53:46;;;;;;;4.03;2.90;;;12.50;99.90;;;;;;21220649;27;20396;-54
2022/04/25 13:04:19;;;;;;;3.75;2.58;;;12.30;99.90;;;;;;20938910;28;20049;-52
2022/04/25 13:14:21;;;;;;;5.25;3.40;;;11.90;99.90;;;;;;20925053;28;20053;-53
2022/04/25 13:24:25;;;;;;;4.60;3.10;;;11.30;99.90;;;;;;20878982;28;20149;-54
2022/04/25 13:34:28;;;;;;;3.72;2.58;;;11.60;99.90;;;;;;20771000;28;20161;-51
2022/04/25 13:44:31;;;;;;;6.47;4.63;;;11.20;99.90;;;;;;20954750;28;20099;-53
2022/04/25 13:54:34;;;;;;;12.80;6.40;;;10.90;99.90;;;;;;20977544;28;20222;-60
2022/04/25 14:04:37;;;;;;;11.98;8.57;;;10.80;99.90;;;;;;21031160;28;20125;-52
2022/04/25 14:14:40;;;;;;;16.30;10.35;;;10.40;99.90;;;;;;21109576;27;20043;-53
2022/04/25 14:24:43;;;;;;;16.05;11.48;;;9.80;99.90;;;;;;21194378;27;20039;-59
2022/04/25 14:34:46;;;;;;;16.27;12.05;;;9.50;99.90;;;;;;21201051;27;20032;-53
2022/04/25 14:44:48;;;;;;;19.25;12.85;;;9.20;99.90;;;;;;21132144;27;20090;-52
2022/04/25 14:54:51;;;;;;;15.93;11.48;;;9.10;99.90;;;;;;20992957;28;20072;-59
2022/04/25 15:04:54;;;;;;;19.17;13.52;;;9.00;99.90;;;;;;20956981;28;20115;-53
2022/04/25 15:14:57;;;;;;;19.13;13.75;;;8.90;99.90;;;;;;20896580;28;20049;-52
2022/04/25 15:25:02;;;;;;;19.15;13.43;;;8.80;99.90;;;;;;20937953;28;20067;-53
2022/04/25 15:35:05;;;;;;;19.88;13.30;;;8.70;99.90;;;;;;21009302;28;20108;-51
2022/04/25 15:45:09;;;;;;;16.60;12.70;;;8.80;99.90;;;;;;21192641;27;20377;-59
2022/04/25 16:05:33;;;;;;;17.40;12.38;;;8.80;99.90;;;;;;21191540;27;20376;-60
2022/04/25 16:15:36;;;;;;;17.30;13.02;;;8.80;99.90;;;;;;21224284;27;20083;-53
2022/04/25 16:25:40;;;;;;;19.40;14.27;;;8.70;99.90;;;;;;21163791;27;20087;-52
2022/04/25 16:35:43;;;;;;;18.25;13.15;;;8.50;99.90;;;;;;21222670;27;20049;-60
2022/04/25 16:45:47;;;;;;;20.98;13.68;;;8.50;99.90;;;;;;21184447;27;20704;-52
2022/04/25 16:55:50;;;;;;;23.13;15.45;;;8.60;99.90;;;;;;21203204;27;20039;-50
2022/04/25 17:05:56;;;;;;;28.70;18.23;;;8.40;99.90;;;;;;21203456;27;20061;-53
2022/04/25 17:15:59;;;;;;;25.08;17.30;;;8.20;99.90;;;;;;21218602;27;20035;-59
2022/04/25 17:26:05;;;;;;;21.08;14.93;;;8.10;99.90;;;;;;21172709;27;20061;-50
2022/04/25 17:36:09;;;;;;;23.10;14.82;;;8.00;99.90;;;;;;21133545;28;20039;-49
